Kentfield, CA

12:00 AM PDT on October 26, 2014 (GMT -0700)
Murray Park | Change Station
CLOSE
Current Station
Personal Weather Station
Location: Larkspur, CA
Elevation: 79 ft
Nearby Weather Stations

Elev 79 ft 37.94 °N, 122.55 °W | Updated 9 seconds ago

Partly Cloudy
Partly Cloudy
54.4 °F
Feels Like 54.4 °F
N
0.0
Wind Variable Wind from ESE
Gusts 1.0 mph

Today
High -- | Low -- °F
--% Chance of Precip.
Yesterday
High -- | Low -- °F
Precip. -- in
7:29 AM 6:17 PM
Waxing Crescent, 6% visible
Pressure 30.17 in
Visibility 6.0 miles
Clouds Scattered Clouds 1200 ft
Overcast 1900 ft
Dew Point 53 °F
Humidity 94%
Rainfall 0.00 in
Snow Depth Not available.
UV 0 out of 12
Pollen .10 out of 12
Ozone Good
PM2.5 Good
Flu Activity Sporadic
METAR KO69 260655Z AUTO 33003KT 6SM SCT012 OVC019 12/12 A3017 RMK AO1

More Conditions Fewer Conditions

Pressure 30.17 in
Visibility 6.0 miles
Clouds Scattered Clouds 1200 ft
Overcast 1900 ft
Dew Point 53 °F
Humidity 94%
Rainfall 0.00 in
Snow Depth Not available.
UV 0 out of 12
Pollen .10 out of 12
Ozone Good
PM2.5 Good
Flu Activity Sporadic
METAR KO69 260655Z AUTO 33003KT 6SM SCT012 OVC019 12/12 A3017 RMK AO1

More Conditions Fewer Conditions

10-Day Weather Forecast

Almanac

Astronomy

Oct. 26, 2014 Rise Set
Actual Time 7:29 AM PDT 6:17 PM PDT
Civil Twilight 7:02 AM PDT 6:44 PM PDT
Nautical Twilight 6:31 AM PDT 7:15 PM PDT
Astronomical Twilight 6:01 AM PDT 7:46 PM PDT
Moon 10:11 AM PDT 8:36 PM PDT
Length of Visible Light 11h 42m
Length of Day
10h 48m
Tomorrow will be 2m 14s shorter.
Waxing Crescent, 6% of the Moon is Illuminated
Today
Waxing Crescent
Oct 30
First Quarter
Nov 6
Full
Nov 14
Last Quarter
Nov 22
New

Community

WunderPhotos

Upload Photos

1,765,115 photos uploaded!

Nearby

Air Quality

  Air Quality AQ Index Pollutant
Yesterday Good
OZONE
Yesterday Good
PM2.5
Current Good
PM2.5
Current Good
OZONE
Saturday Good
OZONE
Sunday Moderate
PM2.5
Monday Moderate
PM2.5
Tuesday Moderate
PM2.5
Wednesday Moderate
PM2.5

Snow Depth

Station Depth Elevation
Echo Peak 3 in 7800 ft
Carson Pass 1 in 8500 ft
Blue Lakes 0 in 8000 ft
Rubicon #2 1 in 7500 ft
Squaw Valley 2 in 8200 ft

Earthquake Activity

City Distance Mag. Time & Date
Antioch, California 40 miles 2.7 6:42 AM PDT
2014-10-25
Deer Park, California 39 miles 2.8 6:40 AM PDT
2014-10-25
Minimum magnitude displayed is 2.5.

Coastal Water Temperatures

Place Temperature
San Francisco, CA 64.0 °F
Richmond, CA 64.9 °F
Port Chicago, CA 66.0 °F

Nearby Weather Stations